Time;durP1;ratioP1;P1;durP2;ratioP2;P2;SDS_P1;SDS_P2;PMS_P1;PMS_P2;Temp;Humidity;BMP_temperature;BMP_pressure;BME280_temperature;BME280_humidity;BME280_pressure;Samples;Min_cycle;Max_cycle;Signal;HPM_P1;HPM_P2
2022/08/20 00:02:42;;;;;;;16.42;12.27;;;;;;;;;;8382014;28;20040;-88
2022/08/20 00:06:47;;;;;;;16.50;12.48;;;;;;;;;;8378297;28;20136;-89
2022/08/20 00:10:51;;;;;;;18.60;13.20;;;;;;;;;;8369563;28;20037;-89
2022/08/20 00:14:58;;;;;;;19.27;13.45;;;;;;;;;;8377036;28;20051;-91
2022/08/20 00:19:01;;;;;;;18.23;13.45;;;;;;;;;;8372324;28;20064;-90
2022/08/20 00:23:06;;;;;;;23.25;14.02;;;;;;;;;;8388500;28;20090;-90
2022/08/20 00:27:09;;;;;;;19.15;13.27;;;;;;;;;;8397126;28;20541;-90
2022/08/20 00:31:13;;;;;;;19.60;13.68;;;;;;;;;;8394527;28;20041;-90
2022/08/20 00:35:17;;;;;;;19.45;13.70;;;;;;;;;;8384331;28;20049;-91
2022/08/20 00:39:21;;;;;;;17.70;14.05;;;;;;;;;;8392955;28;20127;-89
2022/08/20 00:43:33;;;;;;;20.92;13.63;;;;;;;;;;8368077;28;20409;-91
2022/08/20 00:47:36;;;;;;;20.80;14.40;;;;;;;;;;8383015;28;20091;-89
2022/08/20 00:51:42;;;;;;;18.77;13.25;;;;;;;;;;8380016;28;20091;-90
2022/08/20 00:55:46;;;;;;;23.65;14.85;;;;;;;;;;8371466;28;20471;-89
2022/08/20 00:59:50;;;;;;;19.75;13.93;;;;;;;;;;8377432;28;20041;-90
2022/08/20 01:03:53;;;;;;;20.48;14.05;;;;;;;;;;8382192;28;20052;-89
2022/08/20 01:07:57;;;;;;;19.90;13.85;;;;;;;;;;8367113;28;20489;-90
2022/08/20 01:12:02;;;;;;;19.40;14.57;;;;;;;;;;8367122;28;20052;-90
2022/08/20 01:16:11;;;;;;;18.13;13.38;;;;;;;;;;8368473;28;20508;-89
2022/08/20 01:20:17;;;;;;;19.23;13.55;;;;;;;;;;8365950;28;20045;-89
2022/08/20 01:24:27;;;;;;;20.05;13.50;;;;;;;;;;8370685;28;20128;-89
2022/08/20 01:28:36;;;;;;;20.70;14.75;;;;;;;;;;8369470;28;20048;-88
2022/08/20 01:32:39;;;;;;;20.08;14.45;;;;;;;;;;8379843;28;20508;-90
2022/08/20 01:36:44;;;;;;;20.73;14.32;;;;;;;;;;8365959;28;20409;-89
2022/08/20 01:41:15;;;;;;;22.98;15.68;;;;;;;;;;8366083;28;20049;-88
2022/08/20 01:45:20;;;;;;;21.05;16.20;;;;;;;;;;8383651;28;20094;-89
2022/08/20 01:49:26;;;;;;;19.67;14.80;;;;;;;;;;8365668;28;20049;-88
2022/08/20 01:53:36;;;;;;;21.02;14.55;;;;;;;;;;8365846;28;20041;-88
2022/08/20 01:57:40;;;;;;;19.23;14.87;;;;;;;;;;8365819;28;20377;-89
2022/08/20 02:01:43;;;;;;;19.88;14.68;;;;;;;;;;8365411;28;20049;-88
2022/08/20 02:05:46;;;;;;;21.40;14.35;;;;;;;;;;8366000;28;20162;-89
2022/08/20 02:09:49;;;;;;;21.40;14.63;;;;;;;;;;8378086;28;20662;-89
2022/08/20 02:13:53;;;;;;;20.02;14.07;;;;;;;;;;8377581;28;20493;-88
2022/08/20 02:17:57;;;;;;;20.15;14.70;;;;;;;;;;8365012;28;20400;-88
2022/08/20 02:22:05;;;;;;;21.48;15.43;;;;;;;;;;8364853;28;20045;-89
2022/08/20 02:26:07;;;;;;;19.38;14.52;;;;;;;;;;8377838;28;20095;-88
2022/08/20 02:30:15;;;;;;;19.90;14.23;;;;;;;;;;8364477;28;20485;-89
2022/08/20 02:34:19;;;;;;;21.48;14.88;;;;;;;;;;8371195;28;20629;-89
2022/08/20 02:38:24;;;;;;;21.40;14.45;;;;;;;;;;8364181;28;20405;-88
2022/08/20 02:42:28;;;;;;;22.63;14.80;;;;;;;;;;8364194;28;20057;-88
2022/08/20 02:46:33;;;;;;;18.20;13.82;;;;;;;;;;8364016;28;20127;-89
2022/08/20 02:50:45;;;;;;;17.30;13.93;;;;;;;;;;8370916;28;20049;-88
2022/08/20 02:54:51;;;;;;;22.33;14.95;;;;;;;;;;8363942;28;20044;-89
2022/08/20 02:58:53;;;;;;;20.90;14.68;;;;;;;;;;8369059;28;20049;-88
2022/08/20 03:02:56;;;;;;;20.40;15.00;;;;;;;;;;8372551;28;20051;-88
2022/08/20 03:06:59;;;;;;;19.20;14.88;;;;;;;;;;8363520;28;20049;-89
2022/08/20 03:11:03;;;;;;;19.95;14.55;;;;;;;;;;8374295;28;20040;-88
2022/08/20 03:15:08;;;;;;;19.73;14.68;;;;;;;;;;8365717;28;20045;-89
2022/08/20 03:19:12;;;;;;;21.77;15.32;;;;;;;;;;8366716;28;20063;-88
2022/08/20 03:23:18;;;;;;;24.02;16.20;;;;;;;;;;8363101;28;20051;-89
2022/08/20 03:27:22;;;;;;;21.55;14.35;;;;;;;;;;8374305;28;20041;-89
2022/08/20 03:31:25;;;;;;;21.25;15.43;;;;;;;;;;8362994;28;20048;-89
2022/08/20 03:35:29;;;;;;;19.13;14.07;;;;;;;;;;8367450;28;20053;-89
2022/08/20 03:39:33;;;;;;;20.90;14.40;;;;;;;;;;8362782;28;20098;-88
2022/08/20 03:43:36;;;;;;;21.77;14.75;;;;;;;;;;8362246;28;20067;-89
2022/08/20 03:47:39;;;;;;;26.92;16.17;;;;;;;;;;8372986;28;20053;-90
2022/08/20 03:51:41;;;;;;;22.10;15.80;;;;;;;;;;8362747;28;20056;-89
2022/08/20 03:55:47;;;;;;;22.08;15.70;;;;;;;;;;8362562;28;20052;-90
2022/08/20 03:59:50;;;;;;;22.20;16.02;;;;;;;;;;8362382;28;20405;-89
2022/08/20 04:03:52;;;;;;;25.23;14.60;;;;;;;;;;8362468;28;20048;-89
2022/08/20 04:07:56;;;;;;;21.63;14.52;;;;;;;;;;8362466;28;20122;-88
2022/08/20 04:12:00;;;;;;;22.65;15.70;;;;;;;;;;8362392;28;20055;-89
2022/08/20 04:16:07;;;;;;;21.20;15.70;;;;;;;;;;8365544;28;20059;-89
2022/08/20 04:20:12;;;;;;;22.65;15.18;;;;;;;;;;8362158;28;20041;-89
2022/08/20 04:24:15;;;;;;;21.95;14.73;;;;;;;;;;8365397;28;20408;-89
2022/08/20 04:28:25;;;;;;;21.13;15.55;;;;;;;;;;8368052;28;20056;-89
2022/08/20 04:32:28;;;;;;;18.88;14.70;;;;;;;;;;8366283;28;20045;-88
2022/08/20 04:36:31;;;;;;;28.02;16.02;;;;;;;;;;8387258;28;20053;-87
2022/08/20 04:40:56;;;;;;;20.45;15.50;;;;;;;;;;8361853;28;20084;-90
2022/08/20 04:45:00;;;;;;;19.98;14.63;;;;;;;;;;8361826;28;20057;-89
2022/08/20 04:49:03;;;;;;;20.10;14.32;;;;;;;;;;8370558;28;20111;-89
2022/08/20 04:53:09;;;;;;;19.90;14.02;;;;;;;;;;8363381;28;20433;-88
2022/08/20 04:57:12;;;;;;;18.58;13.82;;;;;;;;;;8389098;28;20044;-89
2022/08/20 05:01:16;;;;;;;18.65;13.13;;;;;;;;;;8382430;28;20044;-88
2022/08/20 05:05:20;;;;;;;15.93;12.13;;;;;;;;;;8367227;28;20642;-88
2022/08/20 05:09:22;;;;;;;19.67;12.48;;;;;;;;;;8367331;28;20455;-89
2022/08/20 05:13:26;;;;;;;18.75;12.88;;;;;;;;;;8377715;28;20041;-88
2022/08/20 05:17:30;;;;;;;16.00;11.32;;;;;;;;;;8378584;28;20509;-89
2022/08/20 05:21:34;;;;;;;20.75;11.80;;;;;;;;;;8369898;28;20426;-88
2022/08/20 05:25:36;;;;;;;18.65;10.73;;;;;;;;;;8378761;28;20144;-88
2022/08/20 05:29:40;;;;;;;14.30;10.63;;;;;;;;;;8374678;28;20393;-89
2022/08/20 05:33:44;;;;;;;16.60;10.95;;;;;;;;;;8374769;28;20092;-89
2022/08/20 05:37:47;;;;;;;14.85;11.02;;;;;;;;;;8372803;28;20102;-91
2022/08/20 05:41:50;;;;;;;14.77;11.13;;;;;;;;;;8378993;28;20101;-93
2022/08/20 05:45:55;;;;;;;17.30;11.23;;;;;;;;;;8372650;28;20047;-92
2022/08/20 05:49:59;;;;;;;16.23;10.50;;;;;;;;;;8372784;28;20095;-91
2022/08/20 05:54:02;;;;;;;14.57;10.20;;;;;;;;;;8384062;28;20068;-91
2022/08/20 05:58:17;;;;;;;17.00;11.07;;;;;;;;;;8382159;28;20049;-91
2022/08/20 06:06:42;;;;;;;13.55;9.88;;;;;;;;;;8366870;28;20041;-91
2022/08/20 06:10:45;;;;;;;11.63;8.98;;;;;;;;;;8378480;28;20041;-91
2022/08/20 06:14:47;;;;;;;16.90;9.13;;;;;;;;;;8371561;28;20488;-90
2022/08/20 06:19:02;;;;;;;13.02;9.15;;;;;;;;;;8377935;28;20183;-90
2022/08/20 06:23:22;;;;;;;12.48;9.23;;;;;;;;;;8365974;28;20041;-93
2022/08/20 06:27:42;;;;;;;16.67;9.73;;;;;;;;;;8371711;28;20090;-92
2022/08/20 06:31:58;;;;;;;32.97;16.02;;;;;;;;;;8370393;28;20044;-92
2022/08/20 06:36:07;;;;;;;15.13;9.80;;;;;;;;;;8372632;28;20144;-92
2022/08/20 06:40:14;;;;;;;13.02;9.18;;;;;;;;;;8383720;28;20481;-92
2022/08/20 06:44:17;;;;;;;16.35;9.07;;;;;;;;;;8370163;28;20048;-93
2022/08/20 06:48:22;;;;;;;14.55;8.98;;;;;;;;;;8369870;28;20049;-93
2022/08/20 06:52:29;;;;;;;13.55;9.27;;;;;;;;;;8380486;28;20045;-92
2022/08/20 06:56:38;;;;;;;15.80;8.68;;;;;;;;;;8380368;28;20040;-92
2022/08/20 07:00:49;;;;;;;21.63;10.48;;;;;;;;;;8379943;28;20041;-92
2022/08/20 07:05:02;;;;;;;17.02;11.25;;;;;;;;;;8371573;28;20041;-92
2022/08/20 07:09:06;;;;;;;18.17;10.20;;;;;;;;;;8382982;28;20496;-90
2022/08/20 07:13:15;;;;;;;19.33;10.10;;;;;;;;;;8373341;28;20131;-90
2022/08/20 07:17:21;;;;;;;19.25;9.23;;;;;;;;;;8373040;28;20493;-89
2022/08/20 07:21:32;;;;;;;10.07;7.78;;;;;;;;;;8369513;28;20058;-92
2022/08/20 07:25:48;;;;;;;15.50;9.05;;;;;;;;;;8363530;28;20056;-91
2022/08/20 07:34:36;;;;;;;14.80;8.80;;;;;;;;;;8374100;28;20485;-90
2022/08/20 07:38:51;;;;;;;12.93;7.72;;;;;;;;;;8333859;28;20574;-91
2022/08/20 07:43:09;;;;;;;13.68;8.25;;;;;;;;;;8340947;28;20052;-93
2022/08/20 07:47:28;;;;;;;11.50;7.72;;;;;;;;;;8336976;28;20044;-90
2022/08/20 07:52:01;;;;;;;13.95;8.90;;;;;;;;;;8323958;28;20053;-92
2022/08/20 07:56:25;;;;;;;18.02;9.15;;;;;;;;;;8335051;28;20054;-91
2022/08/20 08:00:44;;;;;;;12.35;7.43;;;;;;;;;;8329969;28;20481;-88
2022/08/20 08:05:02;;;;;;;13.38;8.30;;;;;;;;;;8348588;28;20084;-94
2022/08/20 08:09:17;;;;;;;23.00;12.15;;;;;;;;;;8341359;28;20051;-90
2022/08/20 08:13:38;;;;;;;15.27;7.65;;;;;;;;;;8331781;28;20045;-92
2022/08/20 08:17:47;;;;;;;11.07;6.63;;;;;;;;;;8344773;28;20045;-91
2022/08/20 08:21:51;;;;;;;15.88;6.45;;;;;;;;;;8333167;28;20454;-93
2022/08/20 08:25:54;;;;;;;12.63;6.32;;;;;;;;;;8347037;28;20051;-90
2022/08/20 08:29:56;;;;;;;11.43;6.82;;;;;;;;;;8355077;28;20060;-94
2022/08/20 08:33:59;;;;;;;12.88;6.75;;;;;;;;;;8333413;28;20136;-90
2022/08/20 08:38:03;;;;;;;10.73;6.90;;;;;;;;;;8361173;28;20451;-90
2022/08/20 08:42:20;;;;;;;10.77;7.43;;;;;;;;;;8385360;28;20054;-89
2022/08/20 08:46:26;;;;;;;9.50;5.75;;;;;;;;;;8367824;28;20071;-89
2022/08/20 08:50:34;;;;;;;12.88;6.15;;;;;;;;;;8383744;28;20040;-89
2022/08/20 08:54:43;;;;;;;12.90;6.35;;;;;;;;;;8363472;28;20047;-89
2022/08/20 08:58:54;;;;;;;9.20;5.33;;;;;;;;;;8383805;28;20049;-92
2022/08/20 09:03:10;;;;;;;9.85;5.28;;;;;;;;;;8392833;28;20501;-93
2022/08/20 09:07:24;;;;;;;9.85;5.80;;;;;;;;;;8364560;28;20052;-90
2022/08/20 09:11:51;;;;;;;10.38;5.38;;;;;;;;;;8384290;28;20096;-90
2022/08/20 09:16:06;;;;;;;11.60;5.57;;;;;;;;;;8377591;28;20543;-91
2022/08/20 09:20:18;;;;;;;10.27;6.22;;;;;;;;;;8376008;28;20060;-90
2022/08/20 09:24:34;;;;;;;11.00;6.28;;;;;;;;;;8383982;28;20047;-90
2022/08/20 09:28:52;;;;;;;14.82;6.00;;;;;;;;;;8375733;28;20475;-90
2022/08/20 09:33:07;;;;;;;8.95;4.80;;;;;;;;;;8367745;28;20549;-90
2022/08/20 09:37:16;;;;;;;12.50;4.97;;;;;;;;;;8373774;28;20057;-89
2022/08/20 09:41:20;;;;;;;11.52;4.65;;;;;;;;;;8370163;28;20386;-90
2022/08/20 09:45:30;;;;;;;11.30;4.68;;;;;;;;;;8373292;28;20084;-91
2022/08/20 09:49:45;;;;;;;10.55;4.90;;;;;;;;;;8371939;28;20132;-92
2022/08/20 09:54:01;;;;;;;11.05;5.40;;;;;;;;;;8375562;28;20047;-91
2022/08/20 09:58:19;;;;;;;12.35;4.70;;;;;;;;;;8375739;28;20051;-90
2022/08/20 10:02:23;;;;;;;13.65;5.03;;;;;;;;;;8364777;28;20095;-91
2022/08/20 10:06:26;;;;;;;23.33;5.80;;;;;;;;;;8363520;22;20050;-91
2022/08/20 10:10:40;;;;;;;9.85;4.40;;;;;;;;;;8297053;28;20050;-90
2022/08/20 10:14:43;;;;;;;9.15;4.60;;;;;;;;;;8292128;28;20054;-92
2022/08/20 10:18:48;;;;;;;11.20;4.90;;;;;;;;;;8295578;28;20047;-92
2022/08/20 10:22:51;;;;;;;9.27;4.78;;;;;;;;;;8301380;28;20042;-90
2022/08/20 10:26:56;;;;;;;12.30;4.35;;;;;;;;;;8309488;28;20045;-92
2022/08/20 10:31:26;;;;;;;14.63;4.70;;;;;;;;;;8296219;28;20038;-94
2022/08/20 10:35:30;;;;;;;12.48;4.63;;;;;;;;;;8297043;28;20056;-92
2022/08/20 10:39:34;;;;;;;10.77;4.93;;;;;;;;;;8301489;28;20464;-91
2022/08/20 10:43:36;;;;;;;6.95;4.35;;;;;;;;;;8305477;28;20072;-90
2022/08/20 10:47:45;;;;;;;9.73;5.05;;;;;;;;;;8291056;28;20387;-92
2022/08/20 10:51:49;;;;;;;15.25;5.30;;;;;;;;;;8295686;28;20075;-92
2022/08/20 10:55:53;;;;;;;9.68;4.97;;;;;;;;;;8299141;28;20379;-91
2022/08/20 10:59:57;;;;;;;10.35;4.60;;;;;;;;;;8300162;28;20050;-92
2022/08/20 11:03:59;;;;;;;10.10;4.38;;;;;;;;;;8295705;28;20958;-94
2022/08/20 11:08:05;;;;;;;12.30;5.05;;;;;;;;;;8317038;28;20052;-90
2022/08/20 11:12:08;;;;;;;11.48;5.63;;;;;;;;;;8326706;28;20052;-91
2022/08/20 11:20:34;;;;;;;10.55;5.15;;;;;;;;;;8411040;23;20085;-92
2022/08/20 11:24:39;;;;;;;11.00;4.95;;;;;;;;;;8394520;23;20477;-91
2022/08/20 11:28:41;;;;;;;10.50;4.95;;;;;;;;;;8379648;28;20397;-92
2022/08/20 11:32:44;;;;;;;14.40;4.93;;;;;;;;;;8382439;28;20094;-91
2022/08/20 11:36:48;;;;;;;8.95;4.80;;;;;;;;;;8382355;28;20052;-91
2022/08/20 11:40:52;;;;;;;9.10;4.50;;;;;;;;;;8385342;28;20477;-91
2022/08/20 11:44:55;;;;;;;11.77;4.82;;;;;;;;;;8379134;28;20049;-92
2022/08/20 11:48:58;;;;;;;9.65;4.53;;;;;;;;;;8383939;28;20135;-91
2022/08/20 11:53:00;;;;;;;18.73;4.85;;;;;;;;;;8388860;28;20047;-89
2022/08/20 11:57:04;;;;;;;12.75;4.97;;;;;;;;;;8387580;28;20044;-90
2022/08/20 12:01:07;;;;;;;10.75;5.13;;;;;;;;;;8384796;28;20044;-90
2022/08/20 12:05:11;;;;;;;10.35;4.80;;;;;;;;;;8398501;28;20412;-90
2022/08/20 12:09:14;;;;;;;12.07;4.65;;;;;;;;;;8399366;28;20469;-90
2022/08/20 12:13:18;;;;;;;10.75;5.05;;;;;;;;;;8392612;28;20044;-89
2022/08/20 12:17:25;;;;;;;10.88;4.75;;;;;;;;;;8390452;28;20049;-90
2022/08/20 12:21:28;;;;;;;13.20;4.95;;;;;;;;;;8399747;28;20074;-91
2022/08/20 12:25:30;;;;;;;11.68;4.65;;;;;;;;;;8395903;28;20056;-92
2022/08/20 12:29:34;;;;;;;9.20;4.18;;;;;;;;;;8400890;28;20045;-90
2022/08/20 12:33:37;;;;;;;10.63;4.60;;;;;;;;;;8396595;28;20456;-89
2022/08/20 12:37:41;;;;;;;10.02;4.88;;;;;;;;;;8374069;28;20060;-90
2022/08/20 12:41:44;;;;;;;12.75;4.57;;;;;;;;;;8389934;28;20086;-89
2022/08/20 12:45:48;;;;;;;9.23;4.63;;;;;;;;;;8386495;28;20049;-89
2022/08/20 12:49:53;;;;;;;8.10;4.72;;;;;;;;;;8388069;28;20068;-88
2022/08/20 12:53:56;;;;;;;9.77;4.25;;;;;;;;;;8386534;28;20098;-89
2022/08/20 12:58:00;;;;;;;7.50;4.22;;;;;;;;;;8390700;28;20107;-89
2022/08/20 13:02:05;;;;;;;7.20;4.40;;;;;;;;;;8392372;28;20123;-88
2022/08/20 13:06:07;;;;;;;8.00;4.53;;;;;;;;;;8389677;28;20040;-88
2022/08/20 13:10:13;;;;;;;8.55;4.45;;;;;;;;;;8390357;28;20052;-89
2022/08/20 13:14:16;;;;;;;10.70;4.72;;;;;;;;;;8393928;28;20049;-88
2022/08/20 13:18:20;;;;;;;10.77;4.90;;;;;;;;;;8370519;28;20044;-89
2022/08/20 13:22:23;;;;;;;12.80;4.97;;;;;;;;;;8375759;28;20629;-89
2022/08/20 13:26:26;;;;;;;11.25;4.95;;;;;;;;;;8371741;28;20412;-89
2022/08/20 13:30:28;;;;;;;9.73;4.93;;;;;;;;;;8377772;28;20113;-91
2022/08/20 13:34:32;;;;;;;8.25;4.80;;;;;;;;;;8386653;28;20057;-91
2022/08/20 13:38:34;;;;;;;8.32;4.82;;;;;;;;;;8393525;28;20068;-89
2022/08/20 13:42:38;;;;;;;14.68;5.15;;;;;;;;;;8389062;28;20113;-89
2022/08/20 13:46:40;;;;;;;9.52;4.60;;;;;;;;;;8390575;28;20056;-88
2022/08/20 13:50:45;;;;;;;10.68;4.95;;;;;;;;;;8374584;28;20068;-90
2022/08/20 13:54:50;;;;;;;13.40;4.80;;;;;;;;;;8388558;28;20095;-89
2022/08/20 13:58:57;;;;;;;14.13;4.45;;;;;;;;;;8387033;28;20044;-89
2022/08/20 14:03:01;;;;;;;9.75;4.80;;;;;;;;;;8378663;28;20621;-89
2022/08/20 14:07:19;;;;;;;14.20;5.28;;;;;;;;;;8381339;28;20089;-90
2022/08/20 14:11:22;;;;;;;13.38;4.65;;;;;;;;;;8384789;28;20063;-90
2022/08/20 14:15:25;;;;;;;9.75;4.50;;;;;;;;;;8391988;28;20051;-90
2022/08/20 14:19:30;;;;;;;10.68;4.93;;;;;;;;;;8380794;28;20040;-89
2022/08/20 14:23:34;;;;;;;10.00;4.53;;;;;;;;;;8383959;28;20060;-89
2022/08/20 14:27:37;;;;;;;10.68;5.03;;;;;;;;;;8370972;28;20076;-89
2022/08/20 14:31:40;;;;;;;10.88;4.90;;;;;;;;;;8377866;28;20084;-88
2022/08/20 14:35:43;;;;;;;11.73;4.80;;;;;;;;;;8365874;28;20467;-89
2022/08/20 14:39:51;;;;;;;11.50;6.47;;;;;;;;;;8386712;28;20045;-90
2022/08/20 14:43:54;;;;;;;10.80;4.90;;;;;;;;;;8363128;28;20047;-91
2022/08/20 14:47:59;;;;;;;7.85;4.88;;;;;;;;;;8372401;28;20052;-89
2022/08/20 14:52:03;;;;;;;10.73;5.63;;;;;;;;;;8371700;28;20052;-89
2022/08/20 14:56:08;;;;;;;12.02;5.88;;;;;;;;;;8373550;28;20048;-89
2022/08/20 15:00:19;;;;;;;7.72;5.20;;;;;;;;;;8383141;28;20694;-89
2022/08/20 15:04:28;;;;;;;10.90;5.32;;;;;;;;;;8372858;28;20044;-89
2022/08/20 15:08:32;;;;;;;13.30;5.45;;;;;;;;;;8381282;28;20130;-88
2022/08/20 15:12:39;;;;;;;8.45;4.60;;;;;;;;;;8383928;28;20542;-89
2022/08/20 15:16:56;;;;;;;9.88;4.97;;;;;;;;;;8380022;28;20078;-90
2022/08/20 15:21:05;;;;;;;13.35;5.90;;;;;;;;;;8367875;28;20052;-91
2022/08/20 15:25:12;;;;;;;9.43;5.90;;;;;;;;;;8366691;28;20061;-89
2022/08/20 15:29:17;;;;;;;9.48;5.55;;;;;;;;;;8380761;28;20078;-90
2022/08/20 15:33:20;;;;;;;8.93;5.80;;;;;;;;;;8390528;28;20649;-88
2022/08/20 15:37:25;;;;;;;11.00;5.68;;;;;;;;;;8379122;28;20048;-89
2022/08/20 15:41:30;;;;;;;11.90;5.85;;;;;;;;;;8362657;28;20137;-88
2022/08/20 15:45:39;;;;;;;11.20;5.60;;;;;;;;;;8374647;28;20460;-91
2022/08/20 15:49:50;;;;;;;9.85;5.63;;;;;;;;;;8376475;28;20040;-88
2022/08/20 15:54:02;;;;;;;10.57;5.63;;;;;;;;;;8365824;28;20064;-91
2022/08/20 15:58:16;;;;;;;8.32;5.80;;;;;;;;;;8363839;28;20045;-89
2022/08/20 16:02:48;;;;;;;11.10;6.00;;;;;;;;;;8355963;28;20076;-88
2022/08/20 16:06:58;;;;;;;16.60;6.70;;;;;;;;;;8358131;28;20057;-89
2022/08/20 16:11:12;;;;;;;10.88;6.80;;;;;;;;;;8390531;28;20101;-88
2022/08/20 16:15:24;;;;;;;11.63;6.45;;;;;;;;;;8377425;28;20051;-89
2022/08/20 16:19:44;;;;;;;12.68;6.70;;;;;;;;;;8377380;28;20358;-88
2022/08/20 16:23:47;;;;;;;12.35;7.10;;;;;;;;;;8382355;28;20085;-88
2022/08/20 16:28:03;;;;;;;12.70;6.60;;;;;;;;;;8356387;28;20056;-89
2022/08/20 16:32:13;;;;;;;10.63;6.78;;;;;;;;;;8379726;28;20059;-89
2022/08/20 16:36:31;;;;;;;15.15;7.85;;;;;;;;;;8381841;28;20048;-88
2022/08/20 16:40:44;;;;;;;14.48;7.75;;;;;;;;;;8385771;28;20123;-88
2022/08/20 16:44:55;;;;;;;14.77;9.55;;;;;;;;;;8376118;28;20391;-88
2022/08/20 16:49:07;;;;;;;29.13;15.10;;;;;;;;;;8377675;28;20071;-89
2022/08/20 16:53:19;;;;;;;14.73;8.10;;;;;;;;;;8378422;28;20394;-88
2022/08/20 16:57:27;;;;;;;13.20;7.90;;;;;;;;;;8379586;28;20064;-89
2022/08/20 17:01:33;;;;;;;12.10;8.23;;;;;;;;;;8380361;28;20044;-88
2022/08/20 17:05:51;;;;;;;12.02;7.28;;;;;;;;;;8387079;28;20063;-89
2022/08/20 17:10:13;;;;;;;11.07;7.47;;;;;;;;;;8390022;28;20502;-89
2022/08/20 17:14:21;;;;;;;16.38;8.82;;;;;;;;;;8390818;28;20555;-89
2022/08/20 17:18:28;;;;;;;17.83;10.35;;;;;;;;;;8372137;28;20052;-88
2022/08/20 17:22:40;;;;;;;18.85;12.20;;;;;;;;;;8384861;28;20493;-88
2022/08/20 17:26:51;;;;;;;20.88;12.50;;;;;;;;;;8377276;28;20056;-95
2022/08/20 17:30:57;;;;;;;15.27;10.07;;;;;;;;;;8375049;28;20045;-89
2022/08/20 17:35:07;;;;;;;17.08;9.30;;;;;;;;;;8377701;28;20048;-88
2022/08/20 17:39:19;;;;;;;10.43;8.32;;;;;;;;;;8373139;28;20041;-89
2022/08/20 17:43:28;;;;;;;13.30;8.45;;;;;;;;;;8362934;28;20052;-90
2022/08/20 17:47:36;;;;;;;12.93;7.78;;;;;;;;;;8386076;28;20052;-92
2022/08/20 17:51:44;;;;;;;12.45;7.65;;;;;;;;;;8391310;28;20090;-89
2022/08/20 17:55:53;;;;;;;13.63;8.27;;;;;;;;;;8389724;28;20480;-89
2022/08/20 18:00:02;;;;;;;11.35;7.80;;;;;;;;;;8390557;28;20050;-88
2022/08/20 18:04:06;;;;;;;16.23;8.40;;;;;;;;;;8393431;28;20048;-88
2022/08/20 18:08:19;;;;;;;14.45;9.30;;;;;;;;;;8393347;28;20041;-90
2022/08/20 18:12:31;;;;;;;15.65;8.68;;;;;;;;;;8381345;28;20064;-89
2022/08/20 18:16:49;;;;;;;11.95;8.60;;;;;;;;;;8388396;28;20041;-87
2022/08/20 18:21:20;;;;;;;13.65;8.52;;;;;;;;;;8389445;28;20044;-89
2022/08/20 18:25:32;;;;;;;14.38;8.90;;;;;;;;;;8383927;28;20057;-88
2022/08/20 18:29:39;;;;;;;13.18;8.50;;;;;;;;;;8381689;28;20060;-92
2022/08/20 18:33:44;;;;;;;16.27;8.27;;;;;;;;;;8382314;28;20041;-89
2022/08/20 18:37:47;;;;;;;11.85;7.88;;;;;;;;;;8385996;28;20537;-90
2022/08/20 18:41:58;;;;;;;17.25;7.95;;;;;;;;;;8448296;22;20065;-90
2022/08/20 18:46:10;;;;;;;12.45;7.32;;;;;;;;;;8344099;28;20120;-96
2022/08/20 18:50:20;;;;;;;15.45;8.88;;;;;;;;;;8338836;28;20033;-88
2022/08/20 18:54:25;;;;;;;18.70;8.60;;;;;;;;;;8342396;28;20087;-90
2022/08/20 18:58:39;;;;;;;16.95;7.82;;;;;;;;;;8344916;28;20097;-87
2022/08/20 19:02:56;;;;;;;13.85;6.95;;;;;;;;;;8335402;28;20449;-88
2022/08/20 19:07:03;;;;;;;13.00;6.90;;;;;;;;;;8340963;28;20041;-87
2022/08/20 19:11:38;;;;;;;13.77;7.38;;;;;;;;;;8345539;28;20049;-87
2022/08/20 19:15:46;;;;;;;10.98;6.72;;;;;;;;;;8329029;28;20052;-87
2022/08/20 19:19:58;;;;;;;15.60;7.13;;;;;;;;;;8330036;28;20041;-88
2022/08/20 19:24:07;;;;;;;16.13;9.07;;;;;;;;;;8331567;28;20044;-89
2022/08/20 19:28:28;;;;;;;12.35;7.88;;;;;;;;;;8329887;28;20043;-87
2022/08/20 19:32:40;;;;;;;12.23;7.57;;;;;;;;;;8326414;28;20473;-88
2022/08/20 19:36:43;;;;;;;16.35;7.53;;;;;;;;;;8329530;28;20053;-86
2022/08/20 19:40:50;;;;;;;20.58;7.63;;;;;;;;;;8361913;28;20080;-88
2022/08/20 19:44:57;;;;;;;16.00;7.18;;;;;;;;;;8362212;28;20087;-87
2022/08/20 19:49:13;;;;;;;13.82;7.53;;;;;;;;;;8362272;28;20507;-87
2022/08/20 19:53:23;;;;;;;12.00;7.22;;;;;;;;;;8336834;28;20432;-89
2022/08/20 19:57:28;;;;;;;12.13;7.05;;;;;;;;;;8355358;28;20037;-86
2022/08/20 20:01:31;;;;;;;15.68;6.72;;;;;;;;;;8361717;28;20051;-87
2022/08/20 20:05:34;;;;;;;13.05;7.60;;;;;;;;;;8361920;28;20051;-87
2022/08/20 20:09:41;;;;;;;17.85;7.30;;;;;;;;;;8361836;28;20128;-89
2022/08/20 20:13:48;;;;;;;11.30;7.03;;;;;;;;;;8361664;28;20158;-87
2022/08/20 20:17:53;;;;;;;9.25;6.32;;;;;;;;;;8362004;28;20045;-89
2022/08/20 20:22:08;;;;;;;9.55;6.18;;;;;;;;;;8361753;28;20424;-89
2022/08/20 20:26:16;;;;;;;10.02;6.63;;;;;;;;;;8369436;28;20041;-89
2022/08/20 20:30:28;;;;;;;11.45;7.43;;;;;;;;;;8368890;28;20535;-87
2022/08/20 20:34:36;;;;;;;14.68;6.70;;;;;;;;;;8368740;28;20469;-86
2022/08/20 20:38:52;;;;;;;14.35;6.30;;;;;;;;;;8368440;28;20045;-88
2022/08/20 20:43:01;;;;;;;12.48;7.15;;;;;;;;;;8367596;28;20048;-90
2022/08/20 20:47:08;;;;;;;14.75;7.35;;;;;;;;;;8367601;28;20045;-90
2022/08/20 20:51:16;;;;;;;18.00;8.20;;;;;;;;;;8367332;28;20060;-88
2022/08/20 20:55:24;;;;;;;10.43;7.90;;;;;;;;;;8367388;28;20051;-89
2022/08/20 20:59:26;;;;;;;13.48;7.68;;;;;;;;;;8361264;28;20075;-88
2022/08/20 21:03:30;;;;;;;11.68;6.20;;;;;;;;;;8367029;28;20044;-86
2022/08/20 21:07:33;;;;;;;11.38;6.20;;;;;;;;;;8366890;28;20098;-89
2022/08/20 21:11:36;;;;;;;14.23;6.80;;;;;;;;;;8366646;28;20059;-87
2022/08/20 21:15:39;;;;;;;9.00;6.95;;;;;;;;;;8368649;28;20041;-89
2022/08/20 21:19:43;;;;;;;10.77;6.60;;;;;;;;;;8366761;28;20045;-87
2022/08/20 21:23:46;;;;;;;13.75;6.43;;;;;;;;;;8372105;28;20078;-89
2022/08/20 21:27:50;;;;;;;13.18;7.72;;;;;;;;;;8367440;28;20077;-90
2022/08/20 21:31:53;;;;;;;11.20;7.53;;;;;;;;;;8366486;28;20053;-87
2022/08/20 21:35:57;;;;;;;12.20;7.50;;;;;;;;;;8365013;28;20045;-87
2022/08/20 21:39:59;;;;;;;13.57;7.30;;;;;;;;;;8365932;28;20068;-90
2022/08/20 21:44:10;;;;;;;13.02;7.55;;;;;;;;;;8366081;28;20120;-88
2022/08/20 21:48:13;;;;;;;12.37;8.47;;;;;;;;;;8365963;28;20047;-89
2022/08/20 21:52:17;;;;;;;13.50;7.45;;;;;;;;;;8365767;28;20287;-87
2022/08/20 21:56:20;;;;;;;13.75;7.38;;;;;;;;;;8365444;28;20433;-87
2022/08/20 22:00:49;;;;;;;11.30;7.28;;;;;;;;;;8365405;28;20061;-91
2022/08/20 22:04:51;;;;;;;13.48;7.68;;;;;;;;;;8365013;28;20053;-87
2022/08/20 22:08:55;;;;;;;12.30;7.82;;;;;;;;;;8365168;28;20049;-87
2022/08/20 22:12:58;;;;;;;11.50;7.50;;;;;;;;;;8365080;28;20045;-88
2022/08/20 22:17:00;;;;;;;11.23;7.50;;;;;;;;;;8364719;28;20043;-88
2022/08/20 22:21:05;;;;;;;14.55;8.23;;;;;;;;;;8362257;28;20397;-88
2022/08/20 22:25:10;;;;;;;15.02;8.65;;;;;;;;;;8365652;28;20041;-87
2022/08/20 22:29:13;;;;;;;14.48;8.93;;;;;;;;;;8364312;28;20056;-88
2022/08/20 22:33:18;;;;;;;12.40;8.25;;;;;;;;;;8367749;28;20044;-87
2022/08/20 22:37:21;;;;;;;15.38;9.05;;;;;;;;;;8374218;28;20407;-87
2022/08/20 22:41:25;;;;;;;15.05;9.40;;;;;;;;;;8381388;28;20052;-89
2022/08/20 22:45:28;;;;;;;15.15;9.18;;;;;;;;;;8376754;28;20041;-92
2022/08/20 22:49:34;;;;;;;12.13;8.60;;;;;;;;;;8374986;28;20048;-91
2022/08/20 22:53:45;;;;;;;12.32;8.55;;;;;;;;;;8379589;28;20404;-90
2022/08/20 22:57:49;;;;;;;13.48;9.77;;;;;;;;;;8380144;28;20055;-88
2022/08/20 23:01:53;;;;;;;11.30;8.63;;;;;;;;;;8375257;28;20136;-92
2022/08/20 23:05:56;;;;;;;13.77;8.77;;;;;;;;;;8377349;28;20135;-87
2022/08/20 23:09:58;;;;;;;13.40;9.18;;;;;;;;;;8370935;28;20404;-88
2022/08/20 23:14:02;;;;;;;17.00;9.23;;;;;;;;;;8381621;28;20746;-87
2022/08/20 23:18:08;;;;;;;11.60;9.07;;;;;;;;;;8372217;28;20476;-87
2022/08/20 23:22:11;;;;;;;15.20;9.68;;;;;;;;;;8361916;28;20409;-87
2022/08/20 23:26:19;;;;;;;12.90;8.65;;;;;;;;;;8368163;28;20048;-89
2022/08/20 23:30:31;;;;;;;12.50;9.20;;;;;;;;;;8378404;28;20043;-90
2022/08/20 23:34:33;;;;;;;12.18;9.18;;;;;;;;;;8383789;28;20041;-90
2022/08/20 23:38:37;;;;;;;13.25;9.25;;;;;;;;;;8383715;28;20049;-88
2022/08/20 23:42:39;;;;;;;13.57;9.30;;;;;;;;;;8378217;28;20715;-89
2022/08/20 23:46:44;;;;;;;14.25;9.73;;;;;;;;;;8374944;28;20045;-89
2022/08/20 23:50:46;;;;;;;16.88;9.32;;;;;;;;;;8362771;28;20045;-89
2022/08/20 23:54:49;;;;;;;14.60;9.32;;;;;;;;;;8372479;28;20045;-88
2022/08/20 23:58:51;;;;;;;12.95;9.40;;;;;;;;;;8372253;28;20148;-89
